sensor_id;sensor_type;location;lat;lon;timestamp;temperature;humidity
6443;DHT22;3254;47.372;8.512;2022-10-16T00:01:35;13.00;99.90
6443;DHT22;3254;47.372;8.512;2022-10-16T00:04:01;13.00;99.90
6443;DHT22;3254;47.372;8.512;2022-10-16T00:06:28;13.00;99.90
6443;DHT22;3254;47.372;8.512;2022-10-16T00:08:54;13.00;99.90
6443;DHT22;3254;47.372;8.512;2022-10-16T00:11:26;13.00;99.90
6443;DHT22;3254;47.372;8.512;2022-10-16T00:13:56;13.00;99.90
6443;DHT22;3254;47.372;8.512;2022-10-16T00:16:22;13.00;99.90
6443;DHT22;3254;47.372;8.512;2022-10-16T00:18:48;13.10;99.90
6443;DHT22;3254;47.372;8.512;2022-10-16T00:21:20;13.10;99.90
6443;DHT22;3254;47.372;8.512;2022-10-16T00:23:46;13.10;99.90
6443;DHT22;3254;47.372;8.512;2022-10-16T00:26:14;13.10;99.90
6443;DHT22;3254;47.372;8.512;2022-10-16T00:28:40;13.10;99.90
6443;DHT22;3254;47.372;8.512;2022-10-16T00:31:08;13.10;99.90
6443;DHT22;3254;47.372;8.512;2022-10-16T00:33:35;13.10;99.90
6443;DHT22;3254;47.372;8.512;2022-10-16T00:36:03;13.20;99.90
6443;DHT22;3254;47.372;8.512;2022-10-16T00:38:28;13.30;99.90
6443;DHT22;3254;47.372;8.512;2022-10-16T00:40:54;13.20;99.90
6443;DHT22;3254;47.372;8.512;2022-10-16T00:43:38;13.20;99.90
6443;DHT22;3254;47.372;8.512;2022-10-16T00:46:15;13.20;99.90
6443;DHT22;3254;47.372;8.512;2022-10-16T00:48:43;13.20;99.90
6443;DHT22;3254;47.372;8.512;2022-10-16T00:51:10;13.20;99.90
6443;DHT22;3254;47.372;8.512;2022-10-16T00:53:36;13.10;99.90
6443;DHT22;3254;47.372;8.512;2022-10-16T00:56:02;13.10;99.90
6443;DHT22;3254;47.372;8.512;2022-10-16T00:58:28;13.10;99.90
6443;DHT22;3254;47.372;8.512;2022-10-16T01:00:54;13.10;99.90
6443;DHT22;3254;47.372;8.512;2022-10-16T01:14:06;13.10;99.90
6443;DHT22;3254;47.372;8.512;2022-10-16T01:16:53;13.10;99.90
6443;DHT22;3254;47.372;8.512;2022-10-16T01:22:25;13.10;99.90
6443;DHT22;3254;47.372;8.512;2022-10-16T01:24:53;13.10;99.90
6443;DHT22;3254;47.372;8.512;2022-10-16T01:27:28;13.10;99.90
6443;DHT22;3254;47.372;8.512;2022-10-16T01:30:04;13.10;99.90
6443;DHT22;3254;47.372;8.512;2022-10-16T01:32:42;13.10;99.90
6443;DHT22;3254;47.372;8.512;2022-10-16T01:35:16;13.10;99.90
6443;DHT22;3254;47.372;8.512;2022-10-16T01:40:23;13.10;99.90
6443;DHT22;3254;47.372;8.512;2022-10-16T01:43:15;13.10;99.90
6443;DHT22;3254;47.372;8.512;2022-10-16T01:45:44;13.10;99.90
6443;DHT22;3254;47.372;8.512;2022-10-16T01:48:12;13.10;99.90
6443;DHT22;3254;47.372;8.512;2022-10-16T01:50:41;13.10;99.90
6443;DHT22;3254;47.372;8.512;2022-10-16T01:53:11;13.10;99.90
6443;DHT22;3254;47.372;8.512;2022-10-16T01:55:40;13.10;99.90
6443;DHT22;3254;47.372;8.512;2022-10-16T01:58:10;13.10;99.90
6443;DHT22;3254;47.372;8.512;2022-10-16T02:00:38;13.10;99.90
6443;DHT22;3254;47.372;8.512;2022-10-16T02:03:05;13.00;99.90
6443;DHT22;3254;47.372;8.512;2022-10-16T02:05:37;13.00;99.90
6443;DHT22;3254;47.372;8.512;2022-10-16T02:08:04;12.90;99.90
6443;DHT22;3254;47.372;8.512;2022-10-16T02:10:30;12.90;99.90
6443;DHT22;3254;47.372;8.512;2022-10-16T02:15:40;12.70;99.90
6443;DHT22;3254;47.372;8.512;2022-10-16T02:18:06;12.80;99.90
6443;DHT22;3254;47.372;8.512;2022-10-16T02:26:29;12.60;99.90
6443;DHT22;3254;47.372;8.512;2022-10-16T02:29:00;12.50;99.90
6443;DHT22;3254;47.372;8.512;2022-10-16T02:31:29;12.50;99.90
6443;DHT22;3254;47.372;8.512;2022-10-16T02:33:58;12.40;99.90
6443;DHT22;3254;47.372;8.512;2022-10-16T02:36:25;12.40;99.90
6443;DHT22;3254;47.372;8.512;2022-10-16T02:38:51;12.40;99.90
6443;DHT22;3254;47.372;8.512;2022-10-16T02:41:18;12.40;99.90
6443;DHT22;3254;47.372;8.512;2022-10-16T02:43:46;12.30;99.90
6443;DHT22;3254;47.372;8.512;2022-10-16T02:46:12;12.30;99.90
6443;DHT22;3254;47.372;8.512;2022-10-16T02:48:38;12.30;99.90
6443;DHT22;3254;47.372;8.512;2022-10-16T02:51:04;12.40;99.90
6443;DHT22;3254;47.372;8.512;2022-10-16T02:53:30;12.40;99.90
6443;DHT22;3254;47.372;8.512;2022-10-16T02:55:56;12.40;99.90
6443;DHT22;3254;47.372;8.512;2022-10-16T02:58:21;12.40;99.90
6443;DHT22;3254;47.372;8.512;2022-10-16T03:00:47;12.40;99.90
6443;DHT22;3254;47.372;8.512;2022-10-16T03:03:13;12.50;99.90
6443;DHT22;3254;47.372;8.512;2022-10-16T03:05:38;12.40;99.90
6443;DHT22;3254;47.372;8.512;2022-10-16T03:08:04;12.40;99.90
6443;DHT22;3254;47.372;8.512;2022-10-16T03:10:30;12.40;99.90
6443;DHT22;3254;47.372;8.512;2022-10-16T03:12:55;12.30;99.90
6443;DHT22;3254;47.372;8.512;2022-10-16T03:15:21;12.30;99.90
6443;DHT22;3254;47.372;8.512;2022-10-16T03:17:46;12.30;99.90
6443;DHT22;3254;47.372;8.512;2022-10-16T03:20:12;12.30;99.90
6443;DHT22;3254;47.372;8.512;2022-10-16T03:22:38;12.30;99.90
6443;DHT22;3254;47.372;8.512;2022-10-16T03:25:04;12.10;99.90
6443;DHT22;3254;47.372;8.512;2022-10-16T03:27:29;12.20;99.90
6443;DHT22;3254;47.372;8.512;2022-10-16T03:29:55;12.00;99.90
6443;DHT22;3254;47.372;8.512;2022-10-16T03:32:21;12.00;99.90
6443;DHT22;3254;47.372;8.512;2022-10-16T03:34:47;12.00;99.90
6443;DHT22;3254;47.372;8.512;2022-10-16T03:37:12;12.10;99.90
6443;DHT22;3254;47.372;8.512;2022-10-16T03:39:38;12.10;99.90
6443;DHT22;3254;47.372;8.512;2022-10-16T03:42:04;11.90;99.90
6443;DHT22;3254;47.372;8.512;2022-10-16T03:44:30;11.90;99.90
6443;DHT22;3254;47.372;8.512;2022-10-16T03:46:55;11.80;99.90
6443;DHT22;3254;47.372;8.512;2022-10-16T03:49:21;11.80;99.90
6443;DHT22;3254;47.372;8.512;2022-10-16T03:51:46;11.90;99.90
6443;DHT22;3254;47.372;8.512;2022-10-16T03:54:12;11.80;99.90
6443;DHT22;3254;47.372;8.512;2022-10-16T03:56:38;11.80;99.90
6443;DHT22;3254;47.372;8.512;2022-10-16T03:59:04;12.00;99.90
6443;DHT22;3254;47.372;8.512;2022-10-16T04:01:29;12.10;99.90
6443;DHT22;3254;47.372;8.512;2022-10-16T04:03:55;12.20;99.90
6443;DHT22;3254;47.372;8.512;2022-10-16T04:06:21;12.20;99.90
6443;DHT22;3254;47.372;8.512;2022-10-16T04:08:47;12.20;99.90
6443;DHT22;3254;47.372;8.512;2022-10-16T04:11:13;12.20;99.90
6443;DHT22;3254;47.372;8.512;2022-10-16T04:13:39;12.20;99.90
6443;DHT22;3254;47.372;8.512;2022-10-16T04:16:05;12.10;99.90
6443;DHT22;3254;47.372;8.512;2022-10-16T04:18:30;12.10;99.90
6443;DHT22;3254;47.372;8.512;2022-10-16T04:20:56;12.20;99.90
6443;DHT22;3254;47.372;8.512;2022-10-16T04:23:22;12.20;99.90
6443;DHT22;3254;47.372;8.512;2022-10-16T04:25:48;12.20;99.90
6443;DHT22;3254;47.372;8.512;2022-10-16T04:28:14;12.20;99.90
6443;DHT22;3254;47.372;8.512;2022-10-16T04:30:40;12.30;99.90
6443;DHT22;3254;47.372;8.512;2022-10-16T04:33:05;12.30;99.90
6443;DHT22;3254;47.372;8.512;2022-10-16T04:35:31;12.20;99.90
6443;DHT22;3254;47.372;8.512;2022-10-16T04:37:58;12.20;99.90
6443;DHT22;3254;47.372;8.512;2022-10-16T04:40:23;12.20;99.90
6443;DHT22;3254;47.372;8.512;2022-10-16T04:42:49;12.20;99.90
6443;DHT22;3254;47.372;8.512;2022-10-16T04:45:15;12.20;99.90
6443;DHT22;3254;47.372;8.512;2022-10-16T04:47:40;12.20;99.90
6443;DHT22;3254;47.372;8.512;2022-10-16T04:50:06;12.10;99.90
6443;DHT22;3254;47.372;8.512;2022-10-16T04:52:32;12.10;99.90
6443;DHT22;3254;47.372;8.512;2022-10-16T04:54:58;12.10;99.90
6443;DHT22;3254;47.372;8.512;2022-10-16T04:57:27;12.10;99.90
6443;DHT22;3254;47.372;8.512;2022-10-16T04:59:53;12.10;99.90
6443;DHT22;3254;47.372;8.512;2022-10-16T05:02:18;12.10;99.90
6443;DHT22;3254;47.372;8.512;2022-10-16T05:04:44;12.00;99.90
6443;DHT22;3254;47.372;8.512;2022-10-16T05:07:10;12.10;99.90
6443;DHT22;3254;47.372;8.512;2022-10-16T05:09:35;12.10;99.90
6443;DHT22;3254;47.372;8.512;2022-10-16T05:12:01;12.20;99.90
6443;DHT22;3254;47.372;8.512;2022-10-16T05:14:29;12.10;99.90
6443;DHT22;3254;47.372;8.512;2022-10-16T05:16:54;12.10;99.90
6443;DHT22;3254;47.372;8.512;2022-10-16T05:19:20;12.10;99.90
6443;DHT22;3254;47.372;8.512;2022-10-16T05:21:46;12.10;99.90
6443;DHT22;3254;47.372;8.512;2022-10-16T05:24:11;12.10;99.90
6443;DHT22;3254;47.372;8.512;2022-10-16T05:26:37;12.10;99.90
6443;DHT22;3254;47.372;8.512;2022-10-16T05:29:02;12.10;99.90
6443;DHT22;3254;47.372;8.512;2022-10-16T05:31:28;12.20;99.90
6443;DHT22;3254;47.372;8.512;2022-10-16T05:34:01;12.10;99.90
6443;DHT22;3254;47.372;8.512;2022-10-16T05:36:27;12.10;99.90
6443;DHT22;3254;47.372;8.512;2022-10-16T05:38:53;12.00;99.90
6443;DHT22;3254;47.372;8.512;2022-10-16T05:41:19;12.00;99.90
6443;DHT22;3254;47.372;8.512;2022-10-16T05:43:47;12.00;99.90
6443;DHT22;3254;47.372;8.512;2022-10-16T05:46:13;12.10;99.90
6443;DHT22;3254;47.372;8.512;2022-10-16T05:48:39;12.00;99.90
6443;DHT22;3254;47.372;8.512;2022-10-16T05:51:06;12.10;99.90
6443;DHT22;3254;47.372;8.512;2022-10-16T05:53:34;12.00;99.90
6443;DHT22;3254;47.372;8.512;2022-10-16T05:56:00;12.00;99.90
6443;DHT22;3254;47.372;8.512;2022-10-16T05:58:30;12.00;99.90
6443;DHT22;3254;47.372;8.512;2022-10-16T06:01:01;12.00;99.90
6443;DHT22;3254;47.372;8.512;2022-10-16T06:03:27;12.10;99.90
6443;DHT22;3254;47.372;8.512;2022-10-16T06:05:53;12.10;99.90
6443;DHT22;3254;47.372;8.512;2022-10-16T06:08:20;12.10;99.90
6443;DHT22;3254;47.372;8.512;2022-10-16T06:10:47;12.10;99.90
6443;DHT22;3254;47.372;8.512;2022-10-16T06:13:13;12.10;99.90
6443;DHT22;3254;47.372;8.512;2022-10-16T06:15:40;12.10;99.90
6443;DHT22;3254;47.372;8.512;2022-10-16T06:18:09;12.20;99.90
6443;DHT22;3254;47.372;8.512;2022-10-16T06:20:36;12.20;99.90
6443;DHT22;3254;47.372;8.512;2022-10-16T06:23:03;12.30;99.90
6443;DHT22;3254;47.372;8.512;2022-10-16T06:25:30;12.40;99.90
6443;DHT22;3254;47.372;8.512;2022-10-16T06:27:55;12.50;99.90
6443;DHT22;3254;47.372;8.512;2022-10-16T06:30:21;12.60;99.90
6443;DHT22;3254;47.372;8.512;2022-10-16T06:32:47;12.70;99.90
6443;DHT22;3254;47.372;8.512;2022-10-16T06:35:12;12.70;99.90
6443;DHT22;3254;47.372;8.512;2022-10-16T06:37:38;12.80;99.90
6443;DHT22;3254;47.372;8.512;2022-10-16T06:40:04;12.80;99.90
6443;DHT22;3254;47.372;8.512;2022-10-16T06:42:29;12.70;99.90
6443;DHT22;3254;47.372;8.512;2022-10-16T06:44:55;12.80;99.90
6443;DHT22;3254;47.372;8.512;2022-10-16T06:47:21;12.80;99.90
6443;DHT22;3254;47.372;8.512;2022-10-16T06:49:47;13.00;99.90
6443;DHT22;3254;47.372;8.512;2022-10-16T06:52:12;13.00;99.90
6443;DHT22;3254;47.372;8.512;2022-10-16T06:54:38;13.10;99.90
6443;DHT22;3254;47.372;8.512;2022-10-16T06:57:03;13.20;99.90
6443;DHT22;3254;47.372;8.512;2022-10-16T06:59:29;13.30;99.90
6443;DHT22;3254;47.372;8.512;2022-10-16T07:01:54;13.40;99.90
6443;DHT22;3254;47.372;8.512;2022-10-16T07:04:20;13.40;99.90
6443;DHT22;3254;47.372;8.512;2022-10-16T07:06:46;13.40;99.90
6443;DHT22;3254;47.372;8.512;2022-10-16T07:09:12;13.40;99.90
6443;DHT22;3254;47.372;8.512;2022-10-16T07:11:39;13.40;99.90
6443;DHT22;3254;47.372;8.512;2022-10-16T07:14:15;13.40;99.90
6443;DHT22;3254;47.372;8.512;2022-10-16T07:16:40;13.50;99.90
6443;DHT22;3254;47.372;8.512;2022-10-16T07:19:06;13.40;99.90
6443;DHT22;3254;47.372;8.512;2022-10-16T07:21:33;13.40;99.90
6443;DHT22;3254;47.372;8.512;2022-10-16T07:24:05;13.30;99.90
6443;DHT22;3254;47.372;8.512;2022-10-16T07:26:33;13.30;99.90
6443;DHT22;3254;47.372;8.512;2022-10-16T07:28:59;13.20;99.90
6443;DHT22;3254;47.372;8.512;2022-10-16T07:31:25;13.30;99.90
6443;DHT22;3254;47.372;8.512;2022-10-16T07:33:51;13.20;99.90
6443;DHT22;3254;47.372;8.512;2022-10-16T07:36:18;13.20;99.90
6443;DHT22;3254;47.372;8.512;2022-10-16T07:38:46;13.10;99.90
6443;DHT22;3254;47.372;8.512;2022-10-16T07:41:13;13.10;99.90
6443;DHT22;3254;47.372;8.512;2022-10-16T07:43:40;13.20;99.90
6443;DHT22;3254;47.372;8.512;2022-10-16T07:46:06;13.20;99.90
6443;DHT22;3254;47.372;8.512;2022-10-16T07:48:33;13.70;99.90
6443;DHT22;3254;47.372;8.512;2022-10-16T07:51:00;14.80;99.90
6443;DHT22;3254;47.372;8.512;2022-10-16T07:53:27;15.90;99.90
6443;DHT22;3254;47.372;8.512;2022-10-16T07:55:57;16.40;95.10
6443;DHT22;3254;47.372;8.512;2022-10-16T07:58:23;16.60;74.30
6443;DHT22;3254;47.372;8.512;2022-10-16T08:00:49;16.20;71.50
6443;DHT22;3254;47.372;8.512;2022-10-16T08:03:15;15.70;80.20
6443;DHT22;3254;47.372;8.512;2022-10-16T08:05:40;15.30;86.80
6443;DHT22;3254;47.372;8.512;2022-10-16T08:08:06;15.00;93.30
6443;DHT22;3254;47.372;8.512;2022-10-16T08:10:32;14.80;99.90
6443;DHT22;3254;47.372;8.512;2022-10-16T08:12:57;14.70;99.90
6443;DHT22;3254;47.372;8.512;2022-10-16T08:15:24;14.80;99.90
6443;DHT22;3254;47.372;8.512;2022-10-16T08:18:01;14.80;99.90
6443;DHT22;3254;47.372;8.512;2022-10-16T08:20:28;14.90;99.90
6443;DHT22;3254;47.372;8.512;2022-10-16T08:22:53;14.90;99.90
6443;DHT22;3254;47.372;8.512;2022-10-16T08:25:20;15.00;99.90
6443;DHT22;3254;47.372;8.512;2022-10-16T08:27:46;15.00;99.90
6443;DHT22;3254;47.372;8.512;2022-10-16T08:30:13;15.00;99.90
6443;DHT22;3254;47.372;8.512;2022-10-16T08:32:39;15.10;99.90
6443;DHT22;3254;47.372;8.512;2022-10-16T08:35:05;15.20;98.20
6443;DHT22;3254;47.372;8.512;2022-10-16T08:37:31;15.30;94.60
6443;DHT22;3254;47.372;8.512;2022-10-16T08:39:58;15.30;91.30
6443;DHT22;3254;47.372;8.512;2022-10-16T08:45:27;15.40;88.30
6443;DHT22;3254;47.372;8.512;2022-10-16T08:48:20;15.60;81.50
6443;DHT22;3254;47.372;8.512;2022-10-16T08:50:50;15.60;81.80
6443;DHT22;3254;47.372;8.512;2022-10-16T08:53:22;15.80;75.80
6443;DHT22;3254;47.372;8.512;2022-10-16T08:55:51;16.40;68.80
6443;DHT22;3254;47.372;8.512;2022-10-16T08:58:22;17.00;62.20
6443;DHT22;3254;47.372;8.512;2022-10-16T09:01:00;18.20;44.10
6443;DHT22;3254;47.372;8.512;2022-10-16T09:11:58;24.10;1.00
6443;DHT22;3254;47.372;8.512;2022-10-16T09:17:42;25.20;1.00
6443;DHT22;3254;47.372;8.512;2022-10-16T09:20:38;25.80;1.00
6443;DHT22;3254;47.372;8.512;2022-10-16T09:23:25;26.40;1.00
6443;DHT22;3254;47.372;8.512;2022-10-16T09:25:53;26.00;1.00
6443;DHT22;3254;47.372;8.512;2022-10-16T09:28:20;26.20;1.00
6443;DHT22;3254;47.372;8.512;2022-10-16T09:30:46;26.40;1.00
6443;DHT22;3254;47.372;8.512;2022-10-16T09:33:14;27.10;1.00
6443;DHT22;3254;47.372;8.512;2022-10-16T09:35:45;27.70;1.00
6443;DHT22;3254;47.372;8.512;2022-10-16T09:38:29;27.50;1.00
6443;DHT22;3254;47.372;8.512;2022-10-16T09:41:00;27.80;1.00
6443;DHT22;3254;47.372;8.512;2022-10-16T09:43:41;27.80;1.00
6443;DHT22;3254;47.372;8.512;2022-10-16T09:46:35;28.50;1.00
6443;DHT22;3254;47.372;8.512;2022-10-16T09:49:04;28.60;1.00
6443;DHT22;3254;47.372;8.512;2022-10-16T09:56:36;27.40;1.00
6443;DHT22;3254;47.372;8.512;2022-10-16T09:59:20;27.80;1.00
6443;DHT22;3254;47.372;8.512;2022-10-16T10:01:51;27.50;1.00
6443;DHT22;3254;47.372;8.512;2022-10-16T10:04:23;27.60;1.00
6443;DHT22;3254;47.372;8.512;2022-10-16T10:06:54;27.50;1.00
6443;DHT22;3254;47.372;8.512;2022-10-16T10:09:25;28.10;1.00
6443;DHT22;3254;47.372;8.512;2022-10-16T10:11:58;29.00;1.00
6443;DHT22;3254;47.372;8.512;2022-10-16T10:14:31;29.70;1.00
6443;DHT22;3254;47.372;8.512;2022-10-16T10:17:15;30.10;1.00
6443;DHT22;3254;47.372;8.512;2022-10-16T10:22:51;31.00;1.00
6443;DHT22;3254;47.372;8.512;2022-10-16T10:31:03;30.40;1.00
6443;DHT22;3254;47.372;8.512;2022-10-16T10:36:11;30.00;1.00
6443;DHT22;3254;47.372;8.512;2022-10-16T10:38:50;29.80;1.00
6443;DHT22;3254;47.372;8.512;2022-10-16T11:00:19;32.10;1.00
6443;DHT22;3254;47.372;8.512;2022-10-16T11:08:13;31.50;1.00
6443;DHT22;3254;47.372;8.512;2022-10-16T11:10:45;31.30;1.00
6443;DHT22;3254;47.372;8.512;2022-10-16T11:22:13;31.10;1.00
6443;DHT22;3254;47.372;8.512;2022-10-16T11:24:53;31.30;1.00
6443;DHT22;3254;47.372;8.512;2022-10-16T11:27:29;32.00;1.00
6443;DHT22;3254;47.372;8.512;2022-10-16T11:29:59;32.10;1.00
6443;DHT22;3254;47.372;8.512;2022-10-16T11:32:47;32.70;1.00
6443;DHT22;3254;47.372;8.512;2022-10-16T11:35:21;32.60;1.00
6443;DHT22;3254;47.372;8.512;2022-10-16T11:37:50;32.90;1.00
6443;DHT22;3254;47.372;8.512;2022-10-16T11:40:31;33.80;1.00
6443;DHT22;3254;47.372;8.512;2022-10-16T11:43:10;34.00;1.00
6443;DHT22;3254;47.372;8.512;2022-10-16T11:45:43;34.40;1.00
6443;DHT22;3254;47.372;8.512;2022-10-16T11:48:43;34.40;1.00
6443;DHT22;3254;47.372;8.512;2022-10-16T11:54:05;35.50;1.00
6443;DHT22;3254;47.372;8.512;2022-10-16T11:56:38;35.30;1.00
6443;DHT22;3254;47.372;8.512;2022-10-16T11:59:10;35.20;1.00
6443;DHT22;3254;47.372;8.512;2022-10-16T12:01:46;35.20;1.00
6443;DHT22;3254;47.372;8.512;2022-10-16T12:07:24;36.10;1.00
6443;DHT22;3254;47.372;8.512;2022-10-16T12:09:53;35.70;1.00
6443;DHT22;3254;47.372;8.512;2022-10-16T12:12:38;35.90;1.00
6443;DHT22;3254;47.372;8.512;2022-10-16T12:15:29;36.20;1.00
6443;DHT22;3254;47.372;8.512;2022-10-16T12:17:56;36.00;1.00
6443;DHT22;3254;47.372;8.512;2022-10-16T12:20:28;36.00;1.00
6443;DHT22;3254;47.372;8.512;2022-10-16T12:23:00;36.30;1.00
6443;DHT22;3254;47.372;8.512;2022-10-16T12:25:35;36.50;1.00
6443;DHT22;3254;47.372;8.512;2022-10-16T12:28:05;36.20;1.00
6443;DHT22;3254;47.372;8.512;2022-10-16T12:30:34;35.20;1.00
6443;DHT22;3254;47.372;8.512;2022-10-16T12:33:05;35.10;1.00
6443;DHT22;3254;47.372;8.512;2022-10-16T12:35:34;35.00;1.00
6443;DHT22;3254;47.372;8.512;2022-10-16T12:38:24;35.00;1.00
6443;DHT22;3254;47.372;8.512;2022-10-16T12:41:08;35.30;1.00
6443;DHT22;3254;47.372;8.512;2022-10-16T12:46:04;34.80;1.00
6443;DHT22;3254;47.372;8.512;2022-10-16T12:48:31;34.40;1.00
6443;DHT22;3254;47.372;8.512;2022-10-16T12:50:56;34.80;1.00
6443;DHT22;3254;47.372;8.512;2022-10-16T12:53:26;34.60;1.00
6443;DHT22;3254;47.372;8.512;2022-10-16T13:00:57;34.80;1.00
6443;DHT22;3254;47.372;8.512;2022-10-16T13:08:58;34.60;1.00
6443;DHT22;3254;47.372;8.512;2022-10-16T13:11:39;34.10;1.00
6443;DHT22;3254;47.372;8.512;2022-10-16T13:22:30;33.20;1.00
6443;DHT22;3254;47.372;8.512;2022-10-16T13:25:28;33.40;1.00
6443;DHT22;3254;47.372;8.512;2022-10-16T13:28:06;33.90;1.00
6443;DHT22;3254;47.372;8.512;2022-10-16T13:30:42;33.80;1.00
6443;DHT22;3254;47.372;8.512;2022-10-16T13:33:21;33.40;1.00
6443;DHT22;3254;47.372;8.512;2022-10-16T13:35:54;33.60;1.00
6443;DHT22;3254;47.372;8.512;2022-10-16T13:38:23;33.30;1.00
6443;DHT22;3254;47.372;8.512;2022-10-16T13:40:50;32.90;1.00
6443;DHT22;3254;47.372;8.512;2022-10-16T13:43:18;33.10;1.00
6443;DHT22;3254;47.372;8.512;2022-10-16T13:45:53;32.80;1.00
6443;DHT22;3254;47.372;8.512;2022-10-16T13:48:19;32.90;1.00
6443;DHT22;3254;47.372;8.512;2022-10-16T13:50:44;32.60;1.00
6443;DHT22;3254;47.372;8.512;2022-10-16T13:53:14;32.20;1.00
6443;DHT22;3254;47.372;8.512;2022-10-16T13:55:40;31.90;1.00
6443;DHT22;3254;47.372;8.512;2022-10-16T13:58:12;32.00;1.00
6443;DHT22;3254;47.372;8.512;2022-10-16T14:00:39;31.90;1.00
6443;DHT22;3254;47.372;8.512;2022-10-16T14:03:11;32.20;1.00
6443;DHT22;3254;47.372;8.512;2022-10-16T14:05:48;32.70;1.00
6443;DHT22;3254;47.372;8.512;2022-10-16T14:08:14;32.80;1.00
6443;DHT22;3254;47.372;8.512;2022-10-16T14:10:40;33.20;1.00
6443;DHT22;3254;47.372;8.512;2022-10-16T14:13:06;33.40;1.00
6443;DHT22;3254;47.372;8.512;2022-10-16T14:15:34;33.30;1.00
6443;DHT22;3254;47.372;8.512;2022-10-16T14:18:01;33.60;1.00
6443;DHT22;3254;47.372;8.512;2022-10-16T14:20:29;34.00;1.00
6443;DHT22;3254;47.372;8.512;2022-10-16T14:23:04;34.20;1.00
6443;DHT22;3254;47.372;8.512;2022-10-16T14:25:31;34.00;1.00
6443;DHT22;3254;47.372;8.512;2022-10-16T14:30:28;33.20;1.00
6443;DHT22;3254;47.372;8.512;2022-10-16T14:33:06;32.90;1.00
6443;DHT22;3254;47.372;8.512;2022-10-16T14:35:37;33.20;1.00
6443;DHT22;3254;47.372;8.512;2022-10-16T14:38:05;33.50;1.00
6443;DHT22;3254;47.372;8.512;2022-10-16T14:40:34;33.10;1.00
6443;DHT22;3254;47.372;8.512;2022-10-16T14:43:04;33.00;1.00
6443;DHT22;3254;47.372;8.512;2022-10-16T14:45:32;33.00;1.00
6443;DHT22;3254;47.372;8.512;2022-10-16T14:48:01;32.70;1.00
6443;DHT22;3254;47.372;8.512;2022-10-16T14:50:28;32.50;1.00
6443;DHT22;3254;47.372;8.512;2022-10-16T14:52:54;31.80;1.00
6443;DHT22;3254;47.372;8.512;2022-10-16T14:55:20;30.90;1.00
6443;DHT22;3254;47.372;8.512;2022-10-16T14:57:46;30.30;1.00
6443;DHT22;3254;47.372;8.512;2022-10-16T15:00:18;29.90;1.00
6443;DHT22;3254;47.372;8.512;2022-10-16T15:02:45;29.40;1.00
6443;DHT22;3254;47.372;8.512;2022-10-16T15:05:17;29.80;1.00
6443;DHT22;3254;47.372;8.512;2022-10-16T15:07:44;29.60;1.00
6443;DHT22;3254;47.372;8.512;2022-10-16T15:10:11;29.50;1.00
6443;DHT22;3254;47.372;8.512;2022-10-16T15:12:37;28.90;1.00
6443;DHT22;3254;47.372;8.512;2022-10-16T15:17:41;28.70;1.00
6443;DHT22;3254;47.372;8.512;2022-10-16T15:20:06;28.70;1.00
6443;DHT22;3254;47.372;8.512;2022-10-16T15:22:32;28.20;1.00
6443;DHT22;3254;47.372;8.512;2022-10-16T15:24:58;28.70;1.00
6443;DHT22;3254;47.372;8.512;2022-10-16T15:27:23;29.20;1.00
6443;DHT22;3254;47.372;8.512;2022-10-16T15:29:49;29.00;1.00
6443;DHT22;3254;47.372;8.512;2022-10-16T15:32:15;29.10;1.00
6443;DHT22;3254;47.372;8.512;2022-10-16T15:34:40;29.00;1.00
6443;DHT22;3254;47.372;8.512;2022-10-16T15:37:06;28.80;1.00
6443;DHT22;3254;47.372;8.512;2022-10-16T15:39:31;28.70;1.00
6443;DHT22;3254;47.372;8.512;2022-10-16T15:41:57;28.40;1.00
6443;DHT22;3254;47.372;8.512;2022-10-16T15:44:23;28.30;1.00
6443;DHT22;3254;47.372;8.512;2022-10-16T15:46:50;28.10;1.00
6443;DHT22;3254;47.372;8.512;2022-10-16T15:49:19;28.30;1.00
6443;DHT22;3254;47.372;8.512;2022-10-16T15:51:45;28.40;1.00
6443;DHT22;3254;47.372;8.512;2022-10-16T15:54:11;28.00;1.00
6443;DHT22;3254;47.372;8.512;2022-10-16T15:56:37;27.70;1.00
6443;DHT22;3254;47.372;8.512;2022-10-16T15:59:03;27.40;1.00
6443;DHT22;3254;47.372;8.512;2022-10-16T16:01:33;26.80;1.00
6443;DHT22;3254;47.372;8.512;2022-10-16T16:03:58;26.20;1.00
6443;DHT22;3254;47.372;8.512;2022-10-16T16:06:24;25.70;1.00
6443;DHT22;3254;47.372;8.512;2022-10-16T16:08:50;25.30;1.00
6443;DHT22;3254;47.372;8.512;2022-10-16T16:11:17;25.00;1.00
6443;DHT22;3254;47.372;8.512;2022-10-16T16:13:43;24.70;1.00
6443;DHT22;3254;47.372;8.512;2022-10-16T16:16:13;24.40;1.00
6443;DHT22;3254;47.372;8.512;2022-10-16T16:18:40;24.10;1.00
6443;DHT22;3254;47.372;8.512;2022-10-16T16:21:07;23.70;1.00
6443;DHT22;3254;47.372;8.512;2022-10-16T16:23:32;23.50;1.00
6443;DHT22;3254;47.372;8.512;2022-10-16T16:26:12;23.10;1.00
6443;DHT22;3254;47.372;8.512;2022-10-16T16:28:39;22.90;1.00
6443;DHT22;3254;47.372;8.512;2022-10-16T16:31:05;22.60;1.00
6443;DHT22;3254;47.372;8.512;2022-10-16T16:33:31;22.20;1.00
6443;DHT22;3254;47.372;8.512;2022-10-16T16:35:58;22.00;1.00
6443;DHT22;3254;47.372;8.512;2022-10-16T16:38:25;21.70;1.00
6443;DHT22;3254;47.372;8.512;2022-10-16T16:40:50;21.40;1.00
6443;DHT22;3254;47.372;8.512;2022-10-16T16:43:17;21.20;1.00
6443;DHT22;3254;47.372;8.512;2022-10-16T16:45:43;21.00;1.00
6443;DHT22;3254;47.372;8.512;2022-10-16T16:48:09;20.80;1.00
6443;DHT22;3254;47.372;8.512;2022-10-16T16:50:37;20.60;1.00
6443;DHT22;3254;47.372;8.512;2022-10-16T16:53:03;20.50;1.00
6443;DHT22;3254;47.372;8.512;2022-10-16T16:55:29;20.30;1.00
6443;DHT22;3254;47.372;8.512;2022-10-16T16:57:55;20.10;1.00
6443;DHT22;3254;47.372;8.512;2022-10-16T17:00:22;19.90;1.00
6443;DHT22;3254;47.372;8.512;2022-10-16T17:02:49;19.80;1.00
6443;DHT22;3254;47.372;8.512;2022-10-16T17:05:15;19.70;1.00
6443;DHT22;3254;47.372;8.512;2022-10-16T17:07:42;19.60;1.00
6443;DHT22;3254;47.372;8.512;2022-10-16T17:10:08;19.50;1.00
6443;DHT22;3254;47.372;8.512;2022-10-16T17:12:34;19.40;1.00
6443;DHT22;3254;47.372;8.512;2022-10-16T17:15:00;19.30;1.00
6443;DHT22;3254;47.372;8.512;2022-10-16T17:17:25;19.20;1.00
6443;DHT22;3254;47.372;8.512;2022-10-16T17:19:51;19.00;1.00
6443;DHT22;3254;47.372;8.512;2022-10-16T17:22:18;18.90;1.00
6443;DHT22;3254;47.372;8.512;2022-10-16T17:24:44;18.80;1.00
6443;DHT22;3254;47.372;8.512;2022-10-16T17:27:15;18.70;1.00
6443;DHT22;3254;47.372;8.512;2022-10-16T17:29:41;18.60;1.00
6443;DHT22;3254;47.372;8.512;2022-10-16T17:32:07;18.40;1.00
6443;DHT22;3254;47.372;8.512;2022-10-16T17:34:32;18.30;1.00
6443;DHT22;3254;47.372;8.512;2022-10-16T17:37:00;18.20;1.00
6443;DHT22;3254;47.372;8.512;2022-10-16T17:39:25;18.10;1.00
6443;DHT22;3254;47.372;8.512;2022-10-16T17:41:51;18.00;1.00
6443;DHT22;3254;47.372;8.512;2022-10-16T17:44:17;17.80;1.00
6443;DHT22;3254;47.372;8.512;2022-10-16T17:46:50;17.80;1.00
6443;DHT22;3254;47.372;8.512;2022-10-16T17:49:16;17.70;1.00
6443;DHT22;3254;47.372;8.512;2022-10-16T17:51:42;17.60;1.00
6443;DHT22;3254;47.372;8.512;2022-10-16T17:54:08;17.50;1.00
6443;DHT22;3254;47.372;8.512;2022-10-16T17:56:34;17.50;1.00
6443;DHT22;3254;47.372;8.512;2022-10-16T17:59:00;17.40;1.00
6443;DHT22;3254;47.372;8.512;2022-10-16T18:01:35;17.20;1.00
6443;DHT22;3254;47.372;8.512;2022-10-16T18:04:14;17.10;1.00
6443;DHT22;3254;47.372;8.512;2022-10-16T18:06:40;17.10;1.00
6443;DHT22;3254;47.372;8.512;2022-10-16T18:09:09;17.00;1.00
6443;DHT22;3254;47.372;8.512;2022-10-16T18:11:35;17.00;1.00
6443;DHT22;3254;47.372;8.512;2022-10-16T18:14:01;16.80;1.00
6443;DHT22;3254;47.372;8.512;2022-10-16T18:16:28;16.70;1.00
6443;DHT22;3254;47.372;8.512;2022-10-16T18:18:55;16.70;1.00
6443;DHT22;3254;47.372;8.512;2022-10-16T18:21:25;16.70;1.00